• Join FlightAware (Why Join?)
  • Login
  • US Flag 
09:33AM EDT


 

Airport Tracker/Info


-or-


 

Live Flight TrackerFlight Track Log ✈ SKW4664 ✈ 04-Dec-2013 ✈ KDTW - KMBS

Flight Track Log - Related Links

Times and Time Zones

All times are in EST time to prevent confusion due to time zone crossing. See the SKW4664 flight status page for this flight to view local times or setup timezone preferences in your user account.

Time Position Orientation Groundspeed Altitude Reporting Facility
EST Latitude Longitude Course Direction KTS MPH feet Rate Location/Type
03:31PM 42.2039 -83.3697 North 156 180 1,300  Level Cleveland Center
03:32PM 42.1764 -83.4250 236° Southwest 198 228 3,200 1,800 Climbing Cleveland Center
03:33PM 42.1608 -83.4594 239° Southwest 204 235 4,500 2,220 Climbing Cleveland Center
03:33PM 42.1686 -83.4969 286° West 278 320 5,500 3,060 Climbing Cleveland Center
03:34PM 42.3637 -83.4349 North  Level Estimated
03:34PM 42.2039 -83.5475 313° West 263 303 7,700  Level Cleveland Center
03:34PM 42.2231 -83.5781 310° West 276 318 8,600 2,520 Climbing Cleveland Center
03:35PM 42.4041 -83.4284 North  Level FlightAware Approximate
03:35PM 42.3108 -83.6050 347° North 317 365 11,300  Level Cleveland Center
03:36PM 42.4571 -83.4197 North  Level FlightAware Approximate
03:36PM 42.3542 -83.5914 13° North 318 366 12,300  Level Cleveland Center
03:36PM 42.4014 -83.5731 16° North 342 394 12,900 720 Climbing Cleveland Center
03:37PM 42.4658 -83.5456 17° North 342 394 13,100 600 Climbing Cleveland Center
03:38PM 42.5644 -83.5064 16° North 360 414 14,000 420 Climbing Cleveland Center
03:39PM 42.6686 -83.4806 10° North 382 440 14,000  Level Cleveland Center
03:40PM 42.7600 -83.5403 334° Northwest 368 423 14,100  Climbing Cleveland Center
03:41PM 42.8511 -83.6033 333° Northwest 369 425 14,100  Level Cleveland Center
03:42PM 42.9439 -83.6672 333° Northwest 372 428 14,100  Level Cleveland Center
03:43PM 43.0547 -83.7433 333° Northwest 374 430 14,100 -540 Level Cleveland Center
03:44PM 43.1467 -83.8075 333° Northwest 372 428 13,100 -1,500 Descending Cleveland Center
03:45PM 43.2372 -83.8708 333° Northwest 367 422 11,000 -1,620 Descending Cleveland Center
03:46PM 43.3047 -83.9506 319° Northwest 312 359 9,800 -1,800 Descending Cleveland Center
03:47PM 43.3497 -84.0467 303° West 282 325 7,300 -2,280 Descending Cleveland Center
03:48PM 43.3775 -84.1381 293° West 263 303 5,100 -2,220 Descending Cleveland Center
03:49PM 43.3786 -84.2325 271° West 235 270 2,800 -1,380 Descending Cleveland Center
03:50PM 43.3906 -84.2914 286° West 217 250 2,300 -240 Descending Cleveland Center
03:51PM 43.4258 -84.2331 50° Northeast 188 216 2,400  Climbing Cleveland Center
03:52PM 43.4600 -84.1850 46° Northeast 179 206 2,300 -360 Descending Cleveland Center
03:53PM 43.4911 -84.1403 46° Northeast 155 178 1,700 -480 Descending Cleveland Center
03:54PM 43.5164 -84.1042 46° Northeast 148 170 1,400 -300 Descending Cleveland Center